createdAt,value
2022-12-04T00:05:43.609Z,1.10
2022-12-04T00:15:50.796Z,1.14
2022-12-04T00:26:01.644Z,1.16
2022-12-04T00:36:06.466Z,1.23
2022-12-04T00:46:13.923Z,1.25
2022-12-04T00:56:23.915Z,1.17
2022-12-04T01:06:33.407Z,1.17
2022-12-04T01:16:41.864Z,1.17
2022-12-04T01:26:49.193Z,1.19
2022-12-04T01:36:56.195Z,1.19
2022-12-04T01:47:03.975Z,1.13
2022-12-04T01:57:13.352Z,1.05
2022-12-04T02:07:20.707Z,1.05
2022-12-04T02:17:27.296Z,1.12
2022-12-04T02:27:45.266Z,1.18
2022-12-04T02:37:57.208Z,1.23
2022-12-04T02:48:04.799Z,1.27
2022-12-04T02:58:12.561Z,1.30
2022-12-04T03:08:20.230Z,1.27
2022-12-04T03:18:31.228Z,1.17
2022-12-04T03:28:44.302Z,1.21
2022-12-04T03:38:54.192Z,1.24
2022-12-04T03:49:07.793Z,1.27
2022-12-04T03:59:21.280Z,1.32
2022-12-04T04:09:30.375Z,1.30
2022-12-04T04:19:57.953Z,1.24
2022-12-04T04:30:06.154Z,1.20
2022-12-04T04:40:11.135Z,1.19
2022-12-04T04:50:21.164Z,1.15
2022-12-04T05:00:28.576Z,1.15
2022-12-04T05:10:35.492Z,1.11
2022-12-04T05:20:42.834Z,1.04
2022-12-04T05:30:56.328Z,0.97
2022-12-04T05:41:05.975Z,0.91
2022-12-04T05:51:12.043Z,0.89
2022-12-04T06:01:19.025Z,0.86
2022-12-04T06:21:37.675Z,0.81
2022-12-04T06:31:45.063Z,0.82
2022-12-04T06:41:52.202Z,0.84
2022-12-04T06:51:59.266Z,0.84
2022-12-04T07:02:06.373Z,0.88
2022-12-04T07:12:13.707Z,0.88
2022-12-04T07:22:21.345Z,0.81
2022-12-04T07:32:28.659Z,0.77
2022-12-04T07:42:35.761Z,0.80
2022-12-04T07:52:43.293Z,0.88
2022-12-04T08:02:50.809Z,0.96
2022-12-04T08:12:58.601Z,1.01
2022-12-04T08:23:05.734Z,1.09
2022-12-04T08:33:13.254Z,1.04
2022-12-04T08:43:20.459Z,1.09
2022-12-04T08:53:27.996Z,1.29
2022-12-04T09:03:36.254Z,1.44
2022-12-04T09:13:45.038Z,1.61
2022-12-04T09:23:53.023Z,1.71
2022-12-04T09:34:00.843Z,1.77
2022-12-04T09:44:11.809Z,1.77
2022-12-04T09:54:21.964Z,1.78
2022-12-04T10:04:29.895Z,1.82
2022-12-04T10:14:42.910Z,1.89
2022-12-04T10:24:53.775Z,1.99
2022-12-04T10:35:04.653Z,1.93
2022-12-04T10:45:12.090Z,1.97
2022-12-04T10:55:29.889Z,2.04
2022-12-04T11:05:40.090Z,2.11
2022-12-04T11:15:48.761Z,2.16
2022-12-04T11:26:05.613Z,2.06
2022-12-04T11:36:17.810Z,2.01
2022-12-04T11:46:25.327Z,2.05
2022-12-04T11:56:30.975Z,2.09
2022-12-04T12:06:38.895Z,2.10
2022-12-04T12:27:05.773Z,2.03
2022-12-04T12:37:13.158Z,1.93
2022-12-04T12:47:17.704Z,1.93
2022-12-04T12:57:32.549Z,1.95
2022-12-04T13:07:40.766Z,1.95
2022-12-04T13:17:51.515Z,1.93
2022-12-04T13:27:59.545Z,1.89
2022-12-04T13:38:10.243Z,1.88
2022-12-04T13:48:27.780Z,1.80
2022-12-04T13:58:37.674Z,1.75
2022-12-04T14:08:46.344Z,1.70
2022-12-04T14:18:53.974Z,1.68
2022-12-04T14:29:07.173Z,1.64
2022-12-04T14:39:13.130Z,1.66
2022-12-04T14:49:28.573Z,1.68
2022-12-04T14:59:43.002Z,1.63
2022-12-04T15:20:22.774Z,1.61
2022-12-04T15:30:30.191Z,1.60
2022-12-04T15:40:37.697Z,1.63
2022-12-04T15:50:45.339Z,1.56
2022-12-04T16:00:55.551Z,1.46
2022-12-04T16:11:05.626Z,1.49
2022-12-04T16:21:15.376Z,1.52
2022-12-04T16:31:26.870Z,1.55
2022-12-04T16:41:34.489Z,1.52
2022-12-04T16:51:41.627Z,1.49
2022-12-04T17:01:53.724Z,1.46
2022-12-04T17:12:01.104Z,1.48
2022-12-04T17:22:08.450Z,1.46
2022-12-04T17:32:16.073Z,1.45
2022-12-04T17:42:22.180Z,1.41
2022-12-04T17:52:31.294Z,1.35
2022-12-04T18:02:39.207Z,1.30
2022-12-04T18:12:46.404Z,1.27
2022-12-04T18:22:53.514Z,1.21
2022-12-04T18:33:00.668Z,1.19
2022-12-04T18:43:08.308Z,1.16
2022-12-04T18:53:16.228Z,1.11
2022-12-04T19:03:23.764Z,1.09
2022-12-04T19:13:31.119Z,1.02
2022-12-04T19:23:38.668Z,0.92
2022-12-04T19:33:46.061Z,0.85
2022-12-04T19:43:56.749Z,0.82
2022-12-04T19:54:04.845Z,0.79
2022-12-04T20:04:12.704Z,0.79
2022-12-04T20:14:20.259Z,0.78
2022-12-04T20:24:27.685Z,0.75
2022-12-04T20:34:38.787Z,0.75
2022-12-04T20:44:49.134Z,0.71
2022-12-04T20:54:56.303Z,0.67
2022-12-04T21:05:04.073Z,0.63
2022-12-04T21:15:28.439Z,0.59
2022-12-04T21:25:37.402Z,0.61
2022-12-04T21:35:43.753Z,0.60
2022-12-04T21:45:57.802Z,0.48
2022-12-04T21:56:05.058Z,0.44
2022-12-04T22:06:12.740Z,0.45
2022-12-04T22:16:28.156Z,0.42
2022-12-04T22:26:36.643Z,0.41
2022-12-04T22:36:43.920Z,0.50
2022-12-04T22:46:50.162Z,0.42
2022-12-04T22:56:57.297Z,0.31
2022-12-04T23:07:04.569Z,0.28
2022-12-04T23:17:10.844Z,0.25
2022-12-04T23:27:17.970Z,0.21
2022-12-04T23:37:25.112Z,0.22
2022-12-04T23:47:32.147Z,0.21
2022-12-04T23:57:39.246Z,0.24
